sensor_id;sensor_type;location;lat;lon;timestamp;temperature;humidity
49901;DHT22;35789;48.414;12.768;2022-09-17T00:00:00;11.0;99.9
49901;DHT22;35789;48.414;12.768;2022-09-17T00:05:00;10.9;99.9
49901;DHT22;35789;48.414;12.768;2022-09-17T00:10:00;10.8;99.9
49901;DHT22;35789;48.414;12.768;2022-09-17T00:15:00;10.8;99.9
49901;DHT22;35789;48.414;12.768;2022-09-17T00:20:00;10.7;99.9
49901;DHT22;35789;48.414;12.768;2022-09-17T00:25:00;10.6;99.9
49901;DHT22;35789;48.414;12.768;2022-09-17T00:30:00;10.5;99.9
49901;DHT22;35789;48.414;12.768;2022-09-17T00:35:00;10.3;99.9
49901;DHT22;35789;48.414;12.768;2022-09-17T00:40:00;10.3;99.9
49901;DHT22;35789;48.414;12.768;2022-09-17T00:45:00;10.2;99.9
49901;DHT22;35789;48.414;12.768;2022-09-17T00:50:01;10.1;99.9
49901;DHT22;35789;48.414;12.768;2022-09-17T00:55:02;10.2;99.9
49901;DHT22;35789;48.414;12.768;2022-09-17T01:00:00;10.1;99.9
49901;DHT22;35789;48.414;12.768;2022-09-17T01:05:00;10.1;99.9
49901;DHT22;35789;48.414;12.768;2022-09-17T01:10:02;10.3;99.9
49901;DHT22;35789;48.414;12.768;2022-09-17T01:15:03;10.3;99.9
49901;DHT22;35789;48.414;12.768;2022-09-17T01:25:05;10.3;99.9
49901;DHT22;35789;48.414;12.768;2022-09-17T01:35:00;10.5;99.9
49901;DHT22;35789;48.414;12.768;2022-09-17T01:40:02;10.5;99.9
49901;DHT22;35789;48.414;12.768;2022-09-17T01:45:02;10.5;99.9
49901;DHT22;35789;48.414;12.768;2022-09-17T01:50:00;10.4;99.9
49901;DHT22;35789;48.414;12.768;2022-09-17T01:55:01;10.3;99.9
49901;DHT22;35789;48.414;12.768;2022-09-17T02:00:00;10.3;99.9
49901;DHT22;35789;48.414;12.768;2022-09-17T02:05:02;10.2;99.9
49901;DHT22;35789;48.414;12.768;2022-09-17T02:10:02;10.1;99.9
49901;DHT22;35789;48.414;12.768;2022-09-17T02:15:00;10.2;99.9
49901;DHT22;35789;48.414;12.768;2022-09-17T02:20:00;10.2;99.9
49901;DHT22;35789;48.414;12.768;2022-09-17T02:25:01;10.2;99.9
49901;DHT22;35789;48.414;12.768;2022-09-17T02:30:00;10.4;99.9
49901;DHT22;35789;48.414;12.768;2022-09-17T02:35:00;10.3;99.9
49901;DHT22;35789;48.414;12.768;2022-09-17T02:40:00;10.3;99.9
49901;DHT22;35789;48.414;12.768;2022-09-17T02:45:02;10.2;99.9
49901;DHT22;35789;48.414;12.768;2022-09-17T02:50:05;10.2;99.9
49901;DHT22;35789;48.414;12.768;2022-09-17T02:55:01;10.1;99.9
49901;DHT22;35789;48.414;12.768;2022-09-17T03:00:02;10.0;99.9
49901;DHT22;35789;48.414;12.768;2022-09-17T03:05:00;9.9;99.9
49901;DHT22;35789;48.414;12.768;2022-09-17T03:10:00;9.8;99.9
49901;DHT22;35789;48.414;12.768;2022-09-17T03:15:00;9.7;99.9
49901;DHT22;35789;48.414;12.768;2022-09-17T03:20:00;9.5;99.9
49901;DHT22;35789;48.414;12.768;2022-09-17T03:25:00;9.4;99.9
49901;DHT22;35789;48.414;12.768;2022-09-17T03:30:00;9.4;99.9
49901;DHT22;35789;48.414;12.768;2022-09-17T03:35:00;9.3;99.9
49901;DHT22;35789;48.414;12.768;2022-09-17T03:40:00;9.3;99.9
49901;DHT22;35789;48.414;12.768;2022-09-17T03:45:00;9.3;99.9
49901;DHT22;35789;48.414;12.768;2022-09-17T03:50:00;9.3;99.9
49901;DHT22;35789;48.414;12.768;2022-09-17T03:55:00;9.2;99.9
49901;DHT22;35789;48.414;12.768;2022-09-17T04:00:00;9.2;99.9
49901;DHT22;35789;48.414;12.768;2022-09-17T04:05:00;9.3;99.9
49901;DHT22;35789;48.414;12.768;2022-09-17T04:10:00;9.3;99.9
49901;DHT22;35789;48.414;12.768;2022-09-17T04:15:00;9.3;99.9
49901;DHT22;35789;48.414;12.768;2022-09-17T04:20:00;9.4;99.9
49901;DHT22;35789;48.414;12.768;2022-09-17T04:25:00;9.5;99.9
49901;DHT22;35789;48.414;12.768;2022-09-17T04:30:00;9.5;99.9
49901;DHT22;35789;48.414;12.768;2022-09-17T04:35:00;9.5;99.9
49901;DHT22;35789;48.414;12.768;2022-09-17T04:40:00;9.5;99.9
49901;DHT22;35789;48.414;12.768;2022-09-17T04:45:00;9.5;99.9
49901;DHT22;35789;48.414;12.768;2022-09-17T04:50:00;9.6;99.9
49901;DHT22;35789;48.414;12.768;2022-09-17T04:55:00;9.6;99.9
49901;DHT22;35789;48.414;12.768;2022-09-17T05:00:00;9.7;99.9
49901;DHT22;35789;48.414;12.768;2022-09-17T05:05:00;9.7;99.9
49901;DHT22;35789;48.414;12.768;2022-09-17T05:10:00;9.7;99.9
49901;DHT22;35789;48.414;12.768;2022-09-17T05:15:00;9.6;99.9
49901;DHT22;35789;48.414;12.768;2022-09-17T05:20:00;9.6;99.9
49901;DHT22;35789;48.414;12.768;2022-09-17T05:25:00;9.6;99.9
49901;DHT22;35789;48.414;12.768;2022-09-17T05:30:00;9.5;99.9
49901;DHT22;35789;48.414;12.768;2022-09-17T05:35:00;9.6;99.9
49901;DHT22;35789;48.414;12.768;2022-09-17T05:40:00;9.5;99.9
49901;DHT22;35789;48.414;12.768;2022-09-17T05:45:00;9.6;99.9
49901;DHT22;35789;48.414;12.768;2022-09-17T05:50:00;9.5;99.9
49901;DHT22;35789;48.414;12.768;2022-09-17T05:55:00;9.5;99.9
49901;DHT22;35789;48.414;12.768;2022-09-17T06:00:00;9.5;99.9
49901;DHT22;35789;48.414;12.768;2022-09-17T06:05:00;9.5;99.9
49901;DHT22;35789;48.414;12.768;2022-09-17T06:10:00;9.5;99.9
49901;DHT22;35789;48.414;12.768;2022-09-17T06:15:00;9.5;99.9
49901;DHT22;35789;48.414;12.768;2022-09-17T06:20:00;9.6;99.9
49901;DHT22;35789;48.414;12.768;2022-09-17T06:25:00;9.6;99.9
49901;DHT22;35789;48.414;12.768;2022-09-17T06:30:00;9.7;99.9
49901;DHT22;35789;48.414;12.768;2022-09-17T06:35:00;9.7;99.9
49901;DHT22;35789;48.414;12.768;2022-09-17T06:40:00;9.9;99.9
49901;DHT22;35789;48.414;12.768;2022-09-17T06:45:00;10.0;99.9
49901;DHT22;35789;48.414;12.768;2022-09-17T06:50:00;10.0;99.9
49901;DHT22;35789;48.414;12.768;2022-09-17T06:55:00;10.0;99.9
49901;DHT22;35789;48.414;12.768;2022-09-17T07:00:00;10.0;99.9
49901;DHT22;35789;48.414;12.768;2022-09-17T07:05:00;10.1;99.9
49901;DHT22;35789;48.414;12.768;2022-09-17T07:10:00;10.1;99.9
49901;DHT22;35789;48.414;12.768;2022-09-17T07:15:00;10.2;99.9
49901;DHT22;35789;48.414;12.768;2022-09-17T07:20:00;10.2;99.9
49901;DHT22;35789;48.414;12.768;2022-09-17T07:25:00;10.3;99.9
49901;DHT22;35789;48.414;12.768;2022-09-17T07:30:00;10.4;99.9
49901;DHT22;35789;48.414;12.768;2022-09-17T07:35:00;10.5;99.9
49901;DHT22;35789;48.414;12.768;2022-09-17T07:40:00;10.6;99.9
49901;DHT22;35789;48.414;12.768;2022-09-17T07:45:00;10.6;99.9
49901;DHT22;35789;48.414;12.768;2022-09-17T07:50:00;10.8;99.9
49901;DHT22;35789;48.414;12.768;2022-09-17T07:55:00;10.8;99.9
49901;DHT22;35789;48.414;12.768;2022-09-17T08:00:00;10.8;99.9
49901;DHT22;35789;48.414;12.768;2022-09-17T08:05:00;10.9;99.9
49901;DHT22;35789;48.414;12.768;2022-09-17T08:10:00;10.9;99.9
49901;DHT22;35789;48.414;12.768;2022-09-17T08:15:00;11.0;99.9
49901;DHT22;35789;48.414;12.768;2022-09-17T08:20:00;11.0;99.9
49901;DHT22;35789;48.414;12.768;2022-09-17T08:25:00;11.1;99.9
49901;DHT22;35789;48.414;12.768;2022-09-17T08:30:00;11.1;99.9
49901;DHT22;35789;48.414;12.768;2022-09-17T08:35:00;11.2;99.9
49901;DHT22;35789;48.414;12.768;2022-09-17T08:40:00;11.2;99.9
49901;DHT22;35789;48.414;12.768;2022-09-17T08:45:01;11.2;99.9
49901;DHT22;35789;48.414;12.768;2022-09-17T08:50:00;11.4;99.9
49901;DHT22;35789;48.414;12.768;2022-09-17T08:55:01;11.4;99.9
49901;DHT22;35789;48.414;12.768;2022-09-17T09:00:00;11.4;99.9
49901;DHT22;35789;48.414;12.768;2022-09-17T09:05:01;11.4;99.9
49901;DHT22;35789;48.414;12.768;2022-09-17T09:10:03;11.6;99.9
49901;DHT22;35789;48.414;12.768;2022-09-17T09:15:00;11.7;99.9
49901;DHT22;35789;48.414;12.768;2022-09-17T09:20:00;11.5;99.9
49901;DHT22;35789;48.414;12.768;2022-09-17T09:25:02;11.2;99.9
49901;DHT22;35789;48.414;12.768;2022-09-17T09:30:00;10.9;99.9
49901;DHT22;35789;48.414;12.768;2022-09-17T09:35:12;10.8;99.9
49901;DHT22;35789;48.414;12.768;2022-09-17T09:40:02;10.5;99.9
49901;DHT22;35789;48.414;12.768;2022-09-17T09:45:00;10.3;99.9
49901;DHT22;35789;48.414;12.768;2022-09-17T09:50:04;10.2;99.9
49901;DHT22;35789;48.414;12.768;2022-09-17T09:55:04;10.1;99.9
49901;DHT22;35789;48.414;12.768;2022-09-17T10:05:05;10.1;99.9
49901;DHT22;35789;48.414;12.768;2022-09-17T10:10:06;10.0;99.9
49901;DHT22;35789;48.414;12.768;2022-09-17T10:15:03;10.1;99.9
49901;DHT22;35789;48.414;12.768;2022-09-17T10:20:12;10.3;99.9
49901;DHT22;35789;48.414;12.768;2022-09-17T10:25:00;10.3;99.9
49901;DHT22;35789;48.414;12.768;2022-09-17T10:30:01;10.2;99.9
49901;DHT22;35789;48.414;12.768;2022-09-17T10:35:00;10.0;99.9
49901;DHT22;35789;48.414;12.768;2022-09-17T10:40:00;9.9;99.9
49901;DHT22;35789;48.414;12.768;2022-09-17T10:45:00;9.9;99.9
49901;DHT22;35789;48.414;12.768;2022-09-17T10:50:00;10.2;99.9
49901;DHT22;35789;48.414;12.768;2022-09-17T10:55:06;10.5;99.9
49901;DHT22;35789;48.414;12.768;2022-09-17T11:00:02;10.4;99.9
49901;DHT22;35789;48.414;12.768;2022-09-17T11:05:01;10.2;99.9
49901;DHT22;35789;48.414;12.768;2022-09-17T11:10:03;10.1;99.9
49901;DHT22;35789;48.414;12.768;2022-09-17T11:15:00;9.9;99.9
49901;DHT22;35789;48.414;12.768;2022-09-17T11:20:01;9.6;99.9
49901;DHT22;35789;48.414;12.768;2022-09-17T11:25:04;9.5;99.9
49901;DHT22;35789;48.414;12.768;2022-09-17T11:30:02;9.6;99.9
49901;DHT22;35789;48.414;12.768;2022-09-17T11:35:00;9.6;99.9
49901;DHT22;35789;48.414;12.768;2022-09-17T11:40:01;9.6;99.9
49901;DHT22;35789;48.414;12.768;2022-09-17T11:45:02;9.7;99.9
49901;DHT22;35789;48.414;12.768;2022-09-17T11:50:01;9.9;99.9
49901;DHT22;35789;48.414;12.768;2022-09-17T11:55:01;10.1;99.9
49901;DHT22;35789;48.414;12.768;2022-09-17T12:00:01;10.4;99.9
49901;DHT22;35789;48.414;12.768;2022-09-17T12:05:00;10.6;99.9
49901;DHT22;35789;48.414;12.768;2022-09-17T12:10:03;10.7;99.9
49901;DHT22;35789;48.414;12.768;2022-09-17T12:15:01;10.7;99.9
49901;DHT22;35789;48.414;12.768;2022-09-17T12:20:00;10.7;99.9
49901;DHT22;35789;48.414;12.768;2022-09-17T12:25:00;10.7;99.9
49901;DHT22;35789;48.414;12.768;2022-09-17T12:30:03;11.1;99.9
49901;DHT22;35789;48.414;12.768;2022-09-17T12:35:02;11.3;99.9
49901;DHT22;35789;48.414;12.768;2022-09-17T12:40:04;11.6;99.9
49901;DHT22;35789;48.414;12.768;2022-09-17T12:45:04;11.6;99.9
49901;DHT22;35789;48.414;12.768;2022-09-17T12:50:02;11.5;99.9
49901;DHT22;35789;48.414;12.768;2022-09-17T12:55:09;11.5;99.9
49901;DHT22;35789;48.414;12.768;2022-09-17T13:00:01;11.5;99.9
49901;DHT22;35789;48.414;12.768;2022-09-17T13:10:10;11.6;99.9
49901;DHT22;35789;48.414;12.768;2022-09-17T13:15:03;11.7;99.9
49901;DHT22;35789;48.414;12.768;2022-09-17T13:20:02;11.6;99.9
49901;DHT22;35789;48.414;12.768;2022-09-17T13:25:01;11.5;99.9
49901;DHT22;35789;48.414;12.768;2022-09-17T13:30:00;11.6;99.9
49901;DHT22;35789;48.414;12.768;2022-09-17T13:35:03;11.7;99.9
49901;DHT22;35789;48.414;12.768;2022-09-17T13:40:00;11.7;99.9
49901;DHT22;35789;48.414;12.768;2022-09-17T13:45:02;11.7;99.9
49901;DHT22;35789;48.414;12.768;2022-09-17T13:50:02;11.7;99.9
49901;DHT22;35789;48.414;12.768;2022-09-17T13:55:00;11.6;99.9
49901;DHT22;35789;48.414;12.768;2022-09-17T14:00:00;11.8;99.9
49901;DHT22;35789;48.414;12.768;2022-09-17T14:10:00;12.0;99.9
49901;DHT22;35789;48.414;12.768;2022-09-17T14:15:00;11.9;99.9
49901;DHT22;35789;48.414;12.768;2022-09-17T14:20:00;11.9;99.9
49901;DHT22;35789;48.414;12.768;2022-09-17T14:25:00;12.0;99.9
49901;DHT22;35789;48.414;12.768;2022-09-17T14:30:03;12.0;99.9
49901;DHT22;35789;48.414;12.768;2022-09-17T14:35:00;11.9;99.9
49901;DHT22;35789;48.414;12.768;2022-09-17T14:40:00;11.8;99.9
49901;DHT22;35789;48.414;12.768;2022-09-17T14:45:01;11.9;99.9
49901;DHT22;35789;48.414;12.768;2022-09-17T14:55:07;12.0;99.9
49901;DHT22;35789;48.414;12.768;2022-09-17T15:00:00;11.7;99.9
49901;DHT22;35789;48.414;12.768;2022-09-17T15:05:00;11.7;99.9
49901;DHT22;35789;48.414;12.768;2022-09-17T15:10:07;11.6;99.9
49901;DHT22;35789;48.414;12.768;2022-09-17T15:15:00;11.6;99.9
49901;DHT22;35789;48.414;12.768;2022-09-17T15:20:01;11.6;99.9
49901;DHT22;35789;48.414;12.768;2022-09-17T15:25:00;11.5;99.9
49901;DHT22;35789;48.414;12.768;2022-09-17T15:30:01;10.6;99.9
49901;DHT22;35789;48.414;12.768;2022-09-17T15:40:00;9.6;99.9
49901;DHT22;35789;48.414;12.768;2022-09-17T15:45:05;9.3;99.9
49901;DHT22;35789;48.414;12.768;2022-09-17T15:55:00;9.4;99.9
49901;DHT22;35789;48.414;12.768;2022-09-17T16:00:11;9.5;99.9
49901;DHT22;35789;48.414;12.768;2022-09-17T16:10:00;9.6;99.9
49901;DHT22;35789;48.414;12.768;2022-09-17T16:15:00;9.7;99.9
49901;DHT22;35789;48.414;12.768;2022-09-17T16:20:04;9.6;99.9
49901;DHT22;35789;48.414;12.768;2022-09-17T16:25:00;9.7;99.9
49901;DHT22;35789;48.414;12.768;2022-09-17T16:30:00;9.8;99.9
49901;DHT22;35789;48.414;12.768;2022-09-17T16:35:00;9.9;99.9
49901;DHT22;35789;48.414;12.768;2022-09-17T16:40:00;9.9;99.9
49901;DHT22;35789;48.414;12.768;2022-09-17T16:45:00;9.8;99.9
49901;DHT22;35789;48.414;12.768;2022-09-17T16:50:00;9.9;99.9
49901;DHT22;35789;48.414;12.768;2022-09-17T16:55:00;9.8;99.9
49901;DHT22;35789;48.414;12.768;2022-09-17T17:00:00;9.8;99.9
49901;DHT22;35789;48.414;12.768;2022-09-17T17:05:00;9.8;99.9
49901;DHT22;35789;48.414;12.768;2022-09-17T17:10:00;9.8;99.9
49901;DHT22;35789;48.414;12.768;2022-09-17T17:15:00;9.8;99.9
49901;DHT22;35789;48.414;12.768;2022-09-17T17:20:00;9.7;99.9
49901;DHT22;35789;48.414;12.768;2022-09-17T17:25:00;9.6;99.9
49901;DHT22;35789;48.414;12.768;2022-09-17T17:30:00;9.5;99.9
49901;DHT22;35789;48.414;12.768;2022-09-17T17:35:00;9.4;99.9
49901;DHT22;35789;48.414;12.768;2022-09-17T17:40:00;9.3;99.9
49901;DHT22;35789;48.414;12.768;2022-09-17T17:45:00;9.3;99.9
49901;DHT22;35789;48.414;12.768;2022-09-17T17:50:00;9.3;99.9
49901;DHT22;35789;48.414;12.768;2022-09-17T17:55:00;9.3;99.9
49901;DHT22;35789;48.414;12.768;2022-09-17T18:00:00;9.3;99.9
49901;DHT22;35789;48.414;12.768;2022-09-17T18:05:00;9.3;99.9
49901;DHT22;35789;48.414;12.768;2022-09-17T18:10:00;9.3;99.9
49901;DHT22;35789;48.414;12.768;2022-09-17T18:15:00;9.2;99.9
49901;DHT22;35789;48.414;12.768;2022-09-17T18:20:00;9.2;99.9
49901;DHT22;35789;48.414;12.768;2022-09-17T18:25:00;9.1;99.9
49901;DHT22;35789;48.414;12.768;2022-09-17T18:30:00;9.1;99.9
49901;DHT22;35789;48.414;12.768;2022-09-17T18:35:00;9.1;99.9
49901;DHT22;35789;48.414;12.768;2022-09-17T18:40:00;9.1;99.9
49901;DHT22;35789;48.414;12.768;2022-09-17T18:45:00;9.2;99.9
49901;DHT22;35789;48.414;12.768;2022-09-17T18:50:00;9.2;99.9
49901;DHT22;35789;48.414;12.768;2022-09-17T18:55:00;9.2;99.9
49901;DHT22;35789;48.414;12.768;2022-09-17T19:00:00;9.2;99.9
49901;DHT22;35789;48.414;12.768;2022-09-17T19:05:00;9.1;99.9
49901;DHT22;35789;48.414;12.768;2022-09-17T19:10:00;9.1;99.9
49901;DHT22;35789;48.414;12.768;2022-09-17T19:15:00;9.1;99.9
49901;DHT22;35789;48.414;12.768;2022-09-17T19:20:00;9.0;99.9
49901;DHT22;35789;48.414;12.768;2022-09-17T19:25:00;9.1;99.9
49901;DHT22;35789;48.414;12.768;2022-09-17T19:30:00;9.0;99.9
49901;DHT22;35789;48.414;12.768;2022-09-17T19:35:00;8.9;99.9
49901;DHT22;35789;48.414;12.768;2022-09-17T19:40:00;9.0;99.9
49901;DHT22;35789;48.414;12.768;2022-09-17T19:45:00;9.1;99.9
49901;DHT22;35789;48.414;12.768;2022-09-17T19:50:00;9.1;99.9
49901;DHT22;35789;48.414;12.768;2022-09-17T19:55:00;9.1;99.9
49901;DHT22;35789;48.414;12.768;2022-09-17T20:00:00;9.1;99.9
49901;DHT22;35789;48.414;12.768;2022-09-17T20:05:00;9.1;99.9
49901;DHT22;35789;48.414;12.768;2022-09-17T20:10:00;9.1;99.9
49901;DHT22;35789;48.414;12.768;2022-09-17T20:15:00;9.0;99.9
49901;DHT22;35789;48.414;12.768;2022-09-17T20:20:00;9.0;99.9
49901;DHT22;35789;48.414;12.768;2022-09-17T20:25:00;9.1;99.9
49901;DHT22;35789;48.414;12.768;2022-09-17T20:30:00;9.0;99.9
49901;DHT22;35789;48.414;12.768;2022-09-17T20:35:00;9.1;99.9
49901;DHT22;35789;48.414;12.768;2022-09-17T20:40:00;9.1;99.9
49901;DHT22;35789;48.414;12.768;2022-09-17T20:45:00;9.1;99.9
49901;DHT22;35789;48.414;12.768;2022-09-17T20:50:00;9.0;99.9
49901;DHT22;35789;48.414;12.768;2022-09-17T20:55:00;8.9;99.9
49901;DHT22;35789;48.414;12.768;2022-09-17T21:00:00;8.8;99.9
49901;DHT22;35789;48.414;12.768;2022-09-17T21:05:00;8.8;99.9
49901;DHT22;35789;48.414;12.768;2022-09-17T21:10:00;8.8;99.9
49901;DHT22;35789;48.414;12.768;2022-09-17T21:15:00;8.9;99.9
49901;DHT22;35789;48.414;12.768;2022-09-17T21:20:00;8.9;99.9
49901;DHT22;35789;48.414;12.768;2022-09-17T21:25:00;9.0;99.9
49901;DHT22;35789;48.414;12.768;2022-09-17T21:30:00;9.0;99.9
49901;DHT22;35789;48.414;12.768;2022-09-17T21:35:00;9.2;99.9
49901;DHT22;35789;48.414;12.768;2022-09-17T21:40:00;9.1;99.9
49901;DHT22;35789;48.414;12.768;2022-09-17T21:45:00;9.2;99.9
49901;DHT22;35789;48.414;12.768;2022-09-17T21:50:00;9.3;99.9
49901;DHT22;35789;48.414;12.768;2022-09-17T21:55:00;9.3;99.9
49901;DHT22;35789;48.414;12.768;2022-09-17T22:00:00;9.3;99.9
49901;DHT22;35789;48.414;12.768;2022-09-17T22:05:00;9.3;99.9
49901;DHT22;35789;48.414;12.768;2022-09-17T22:10:00;9.3;99.9
49901;DHT22;35789;48.414;12.768;2022-09-17T22:15:00;9.3;99.9
49901;DHT22;35789;48.414;12.768;2022-09-17T22:20:00;9.2;99.9
49901;DHT22;35789;48.414;12.768;2022-09-17T22:25:00;9.1;99.9
49901;DHT22;35789;48.414;12.768;2022-09-17T22:30:00;9.1;99.9
49901;DHT22;35789;48.414;12.768;2022-09-17T22:35:00;9.1;99.9
49901;DHT22;35789;48.414;12.768;2022-09-17T22:40:00;9.1;99.9
49901;DHT22;35789;48.414;12.768;2022-09-17T22:45:00;9.1;99.9
49901;DHT22;35789;48.414;12.768;2022-09-17T22:50:00;9.0;99.9
49901;DHT22;35789;48.414;12.768;2022-09-17T22:55:00;9.0;99.9
49901;DHT22;35789;48.414;12.768;2022-09-17T23:00:00;8.9;99.9
49901;DHT22;35789;48.414;12.768;2022-09-17T23:05:00;8.9;99.9
49901;DHT22;35789;48.414;12.768;2022-09-17T23:10:00;8.8;99.9
49901;DHT22;35789;48.414;12.768;2022-09-17T23:15:00;8.8;99.9
49901;DHT22;35789;48.414;12.768;2022-09-17T23:20:00;8.9;99.9
49901;DHT22;35789;48.414;12.768;2022-09-17T23:25:00;8.9;99.9
49901;DHT22;35789;48.414;12.768;2022-09-17T23:30:00;8.9;99.9
49901;DHT22;35789;48.414;12.768;2022-09-17T23:35:00;9.0;99.9
49901;DHT22;35789;48.414;12.768;2022-09-17T23:40:00;8.9;99.9
49901;DHT22;35789;48.414;12.768;2022-09-17T23:45:00;8.9;99.9
49901;DHT22;35789;48.414;12.768;2022-09-17T23:50:00;8.9;99.9
49901;DHT22;35789;48.414;12.768;2022-09-17T23:55:00;8.9;99.9
